Oriental Acacia — ZGBL2 — position and weather

sailwx.info

Track history (hours):
 
Tides and Currents Weather Stations Pressure Air Temp Water Temp Dewpoint Dewpoint Depression Visibility Wind Speed Wind Dir Waves Ship Positions

Oriental Acacia

Last reported at 2017-Nov-19 18:34 UTC. Time now 2017-Nov-24 00:23 UTC.
Position N 47°21' W 007°04'.

Length 124 m; draft 5.4 m.

Type: Ship (hazmat cat B). MMSI: 319014800.

Date/timePositionNaut miles runAvg speedWind from/ knotsBaromVisibWave heightAir tempDewpointWater temp
2017-Nov-19 18:34N 47°21' W 007°04'1514.3
2017-Nov-19 17:33N 47°33' W 006°53'114.2
2017-Nov-19 17:30N 47°34' W 006°52'714.3
2017-Nov-19 17:00N 47°40' W 006°47'813.9
2017-Nov-19 16:26N 47°47' W 006°41'613.5
2017-Nov-19 16:00N 47°52' W 006°37'913.3
2017-Nov-19 15:17N 48°01' W 006°31'413.0
2017-Nov-19 15:00N 48°04' W 006°28'813.1
2017-Nov-19 14:22N 48°11' W 006°22'513.3
2017-Nov-19 13:59N 48°15' W 006°18'913.5
2017-Nov-19 13:17N 48°24' W 006°11'1514.2
2017-Nov-19 12:15N 48°37' W 006°01'414.8
2017-Nov-19 12:01N 48°40' W 005°59'714.8
2017-Nov-19 11:31N 48°46' W 005°53'915.4
2017-Nov-19 10:57N 48°53' W 005°45'816.1
2017-Nov-19 10:29N 48°57' W 005°35'7014.5
2017-Nov-19 05:39N 49°35' W 004°04'312.7
2017-Nov-19 05:23N 49°36' W 003°60'512.7
2017-Nov-19 05:00N 49°39' W 003°53'813.0
2017-Nov-19 04:24N 49°43' W 003°43'1213.6
2017-Nov-19 03:33N 49°49' W 003°28'114.1
2017-Nov-19 03:29N 49°50' W 003°27'714.5
2017-Nov-19 03:00N 49°53' W 003°18'815.2
2017-Nov-19 02:30N 49°57' W 003°07'815.6
2017-Nov-19 02:00N 50°01' W 002°57'816.2
2017-Nov-19 01:31N 50°03' W 002°44'3315.9
2017-Nov-18 23:27N 50°11' W 001°55'614.1
2017-Nov-18 23:01N 50°13' W 001°46'713.2
2017-Nov-18 22:30N 50°15' W 001°36'612.3
2017-Nov-18 22:01N 50°16' W 001°27'2510.7
2017-Nov-18 19:39N 50°23' W 000°49'911.2
2017-Nov-18 18:49N 50°26' W 000°35'512.0
2017-Nov-18 18:22N 50°28' W 000°27'512.9
2017-Nov-18 17:59N 50°29' W 000°19'613.4
2017-Nov-18 17:30N 50°31' W 000°10'813.9
2017-Nov-18 16:58N 50°32' E 000°02'714.4
2017-Nov-18 16:30N 50°34' E 000°12'714.7
2017-Nov-18 16:01N 50°36' E 000°23'714.8
2017-Nov-18 15:31N 50°39' E 000°34'714.5
2017-Nov-18 15:01N 50°42' E 000°44'714.1
2017-Nov-18 14:30N 50°46' E 000°53'713.6
2017-Nov-18 14:00N 50°50' E 001°02'713.2
2017-Nov-18 13:30N 50°54' E 001°10'712.6
2017-Nov-18 12:59N 50°59' E 001°18'611.8
2017-Nov-18 12:30N 51°02' E 001°25'611.4
2017-Nov-18 12:00N 51°06' E 001°32'611.5
2017-Nov-18 11:30N 51°10' E 001°39'612.0
2017-Nov-18 11:00N 51°14' E 001°46'713.1
2017-Nov-18 10:30N 51°19' E 001°53'714.2
2017-Nov-18 10:01N 51°24' E 001°60'713.2
2017-Nov-18 09:30N 51°22' E 002°10'713.6
2017-Nov-18 09:01N 51°21' E 002°21'815.0
2017-Nov-18 08:30N 51°22' E 002°33'714.2
2017-Nov-18 07:58N 51°22' E 002°45'612.3
2017-Nov-18 07:30N 51°25' E 002°52'714.5
2017-Nov-18 07:00N 51°24' E 003°04'815.0
2017-Nov-18 06:30N 51°25' E 003°16'714.0
2017-Nov-18 06:00N 51°25' E 003°27'510.5
2017-Nov-18 05:30N 51°26' E 003°36'714.2
2017-Nov-18 05:01N 51°22' E 003°45'715.0
2017-Nov-18 04:31N 51°23' E 003°57'510.1
2017-Nov-18 04:01N 51°24' E 004°05'611.7
2017-Nov-18 03:31N 51°22' E 004°14'4 8.0
2017-Nov-18 02:59N 51°18' E 004°17'0 0.0
2017-Nov-18 02:29N 51°18' E 004°17'0 0.0
2017-Nov-18 01:59N 51°18' E 004°17'0 0.0
2017-Nov-18 01:14N 51°18' E 004°17'0 0.0
2017-Nov-18 00:59N 51°18' E 004°17'0 0.0
2017-Nov-18 00:29N 51°18' E 004°17'0 0.0
2017-Nov-17 23:59N 51°18' E 004°17'0 0.0
2017-Nov-17 23:29N 51°18' E 004°17'0 0.0
2017-Nov-17 22:59N 51°18' E 004°17'0 0.0
2017-Nov-17 22:29N 51°18' E 004°17'0 0.0
2017-Nov-17 21:59N 51°18' E 004°17'0 0.0
2017-Nov-17 21:26N 51°18' E 004°17'0 0.0
2017-Nov-17 20:56N 51°18' E 004°17'0 0.0
2017-Nov-17 20:29N 51°18' E 004°17'0 0.0
2017-Nov-17 19:59N 51°18' E 004°17'0 0.0
2017-Nov-17 19:26N 51°18' E 004°17'0 0.0
2017-Nov-17 18:56N 51°18' E 004°17'0 0.0
2017-Nov-17 18:29N 51°18' E 004°17'0 0.0
2017-Nov-17 17:59N 51°18' E 004°17'0 0.0
2017-Nov-17 17:26N 51°18' E 004°17'0 0.0
2017-Nov-17 16:47N 51°18' E 004°17'0 0.0
2017-Nov-17 16:20N 51°18' E 004°17'0 0.0
2017-Nov-17 15:56N 51°18' E 004°17'0 0.0
2017-Nov-17 15:17N 51°18' E 004°17'0 0.0
2017-Nov-17 14:53N 51°18' E 004°17'0 0.0
2017-Nov-17 14:29N 51°18' E 004°17'0 0.0
2017-Nov-17 13:59N 51°18' E 004°17'0 0.0
2017-Nov-17 13:26N 51°18' E 004°17'0 0.0
2017-Nov-17 12:59N 51°18' E 004°17'0 0.0
2017-Nov-17 12:29N 51°18' E 004°17'1 2.3
2017-Nov-17 12:00N 51°18' E 004°19'1 2.5
2017-Nov-17 11:30N 51°17' E 004°20'0 0.0
2017-Nov-17 11:00N 51°17' E 004°20'0 0.8
2017-Nov-17 10:30N 51°17' E 004°21'1 2.3
2017-Nov-17 09:58N 51°18' E 004°20'0 0.0
2017-Nov-17 09:28N 51°18' E 004°20'0 0.0
2017-Nov-17 08:58N 51°18' E 004°20'0 0.0
2017-Nov-17 08:28N 51°18' E 004°20'0 0.0
2017-Nov-17 07:58N 51°18' E 004°20'0 0.0
2017-Nov-17 07:28N 51°18' E 004°20'0 0.0
2017-Nov-17 06:58N 51°18' E 004°20'0 0.0
2017-Nov-17 06:28N 51°18' E 004°20'0 0.0
2017-Nov-17 05:58N 51°18' E 004°20'0 0.0
2017-Nov-17 05:25N 51°18' E 004°20'0 0.0
2017-Nov-17 04:58N 51°18' E 004°20'0 0.0
2017-Nov-17 04:22N 51°18' E 004°20'0 0.0
2017-Nov-17 03:58N 51°18' E 004°20'0 0.0
2017-Nov-17 03:28N 51°18' E 004°20'0 0.0
2017-Nov-17 02:55N 51°18' E 004°20'0 0.0
2017-Nov-17 02:28N 51°18' E 004°20'0 0.0
2017-Nov-17 01:58N 51°18' E 004°20'0 0.0
2017-Nov-17 01:28N 51°18' E 004°20'0 0.0
2017-Nov-17 00:58N 51°18' E 004°20'0 0.0
2017-Nov-17 00:28N 51°18' E 004°20'0 0.0
2017-Nov-16 23:55N 51°18' E 004°20'0 0.0
2017-Nov-16 23:28N 51°18' E 004°20'0 0.0
2017-Nov-16 22:58N 51°18' E 004°20'0 0.0
2017-Nov-16 22:28N 51°18' E 004°20'0 0.0
2017-Nov-16 21:58N 51°18' E 004°20'0 0.0
2017-Nov-16 21:28N 51°18' E 004°20'0 0.0
2017-Nov-16 20:58N 51°18' E 004°20'0 0.0
2017-Nov-16 20:28N 51°18' E 004°20'0 0.0
2017-Nov-16 19:58N 51°18' E 004°20'0 0.0
2017-Nov-16 19:28N 51°18' E 004°20'0 0.0
2017-Nov-16 18:58N 51°18' E 004°20'0 0.0
2017-Nov-16 18:22N 51°18' E 004°20'0 0.0
2017-Nov-16 17:58N 51°18' E 004°20'0 0.0
2017-Nov-16 17:28N 51°18' E 004°20'0 0.0
2017-Nov-16 16:58N 51°18' E 004°20'0 0.0
2017-Nov-16 16:28N 51°18' E 004°20'0 0.0
2017-Nov-16 15:58N 51°18' E 004°20'0 0.0
2017-Nov-16 15:25N 51°18' E 004°20'0 0.0
2017-Nov-16 14:58N 51°18' E 004°20'0 0.0
2017-Nov-16 14:28N 51°18' E 004°20'0 0.0
2017-Nov-16 13:58N 51°18' E 004°20'0 0.0
2017-Nov-16 13:28N 51°18' E 004°20'0 0.0
2017-Nov-16 12:55N 51°18' E 004°20'0 0.0
2017-Nov-16 12:28N 51°18' E 004°20'0 0.0
2017-Nov-16 11:58N 51°18' E 004°20'0 0.0
2017-Nov-16 11:28N 51°18' E 004°20'0 0.0
2017-Nov-16 10:55N 51°18' E 004°20'0 0.0
2017-Nov-16 10:25N 51°18' E 004°20'0 0.0
2017-Nov-16 09:58N 51°18' E 004°20'0 0.0
2017-Nov-16 09:28N 51°18' E 004°20'0 0.0
2017-Nov-16 08:55N 51°18' E 004°20'0 0.0
2017-Nov-16 08:28N 51°18' E 004°20'0 0.0
2017-Nov-16 07:58N 51°18' E 004°20'0 0.0
2017-Nov-16 07:28N 51°18' E 004°20'0 0.0
2017-Nov-16 06:58N 51°18' E 004°20'0 0.0
2017-Nov-16 06:28N 51°18' E 004°20'0 0.0
2017-Nov-16 05:58N 51°18' E 004°20'0 0.0
2017-Nov-16 05:28N 51°18' E 004°20'0 0.0
2017-Nov-16 04:58N 51°18' E 004°20'0 0.0
2017-Nov-16 04:28N 51°18' E 004°20'0 0.1
2017-Nov-16 03:55N 51°18' E 004°20'0 0.1
2017-Nov-16 03:28N 51°18' E 004°20'0 0.1
2017-Nov-16 02:58N 51°18' E 004°20'0 0.0
2017-Nov-16 02:28N 51°18' E 004°20'0 0.0
2017-Nov-16 01:58N 51°18' E 004°20'0 0.0
2017-Nov-16 01:17N 51°18' E 004°20'0 0.0
2017-Nov-16 00:55N 51°18' E 004°20'0 0.0
2017-Nov-16 00:25N 51°18' E 004°20'0 0.0
2017-Nov-15 23:52N 51°18' E 004°20'0 0.0
2017-Nov-15 23:28N 51°18' E 004°20'0 0.0
2017-Nov-15 22:58N 51°18' E 004°20'0 0.0
2017-Nov-15 22:28N 51°18' E 004°20'0 0.0
2017-Nov-15 21:55N 51°18' E 004°20'0 0.0
2017-Nov-15 21:28N 51°18' E 004°20'0 0.0
2017-Nov-15 20:52N 51°18' E 004°20'0 0.0
2017-Nov-15 20:25N 51°18' E 004°20'0 0.0
2017-Nov-15 19:58N 51°18' E 004°20'0 0.0
2017-Nov-15 19:28N 51°18' E 004°20'0 0.0
2017-Nov-15 18:58N 51°18' E 004°20'0 0.0
2017-Nov-15 18:28N 51°18' E 004°20'0 0.0
2017-Nov-15 17:58N 51°18' E 004°20'0 0.0
2017-Nov-15 17:28N 51°18' E 004°20'0 0.0
2017-Nov-15 16:55N 51°18' E 004°20'0 0.0
2017-Nov-15 16:28N 51°18' E 004°20'0 0.0
2017-Nov-15 15:43N 51°18' E 004°20'0 0.0
2017-Nov-15 15:25N 51°18' E 004°20'0 0.0
2017-Nov-15 14:55N 51°18' E 004°20'0 0.0
2017-Nov-15 14:22N 51°18' E 004°20'0 0.0
2017-Nov-15 13:58N 51°18' E 004°20'0 0.0
2017-Nov-15 13:19N 51°18' E 004°20'0 0.0
2017-Nov-15 12:52N 51°18' E 004°20'0 0.0
2017-Nov-15 12:28N 51°18' E 004°20'0 0.0
2017-Nov-15 11:58N 51°18' E 004°20'0 0.0
2017-Nov-15 11:25N 51°18' E 004°20'0 0.0
2017-Nov-15 10:58N 51°18' E 004°20'0 0.0
2017-Nov-15 10:25N 51°18' E 004°20'0 0.0
2017-Nov-15 09:49N 51°18' E 004°20'0 0.0
2017-Nov-15 09:25N 51°18' E 004°20'0 0.0
2017-Nov-15 08:52N 51°18' E 004°20'0 0.0
2017-Nov-15 08:25N 51°18' E 004°20'0 0.0
2017-Nov-15 07:55N 51°18' E 004°20'0 0.0
2017-Nov-15 07:19N 51°18' E 004°20'0 0.0
2017-Nov-15 06:55N 51°18' E 004°20'0 0.0
2017-Nov-15 06:28N 51°18' E 004°20'0 0.0
2017-Nov-15 05:52N 51°18' E 004°20'0 0.0
2017-Nov-15 05:25N 51°18' E 004°20'0 0.0
2017-Nov-15 04:55N 51°18' E 004°20'0 0.0
2017-Nov-15 04:19N 51°18' E 004°20'0 0.0
2017-Nov-15 03:55N 51°18' E 004°20'0 0.0
2017-Nov-15 03:22N 51°18' E 004°20'0 0.1
2017-Nov-15 02:59N 51°18' E 004°20'2 3.7
2017-Nov-15 02:31N 51°19' E 004°19'2 3.3
2017-Nov-15 02:01N 51°21' E 004°17'0 0.0
2017-Nov-15 01:28N 51°21' E 004°17'0 0.0
2017-Nov-15 00:58N 51°21' E 004°17'0 0.0
2017-Nov-15 00:30N 51°21' E 004°17'2 3.9
2017-Nov-15 00:00N 51°21' E 004°14'4 7.7
2017-Nov-14 23:30N 51°22' E 004°08'510.8
2017-Nov-14 23:00N 51°26' E 004°01'612.2
2017-Nov-14 22:30N 51°22' E 003°54'612.8
2017-Nov-14 22:00N 51°22' E 003°44'510.9
2017-Nov-14 21:30N 51°26' E 003°37'5 9.9
2017-Nov-14 21:00N 51°25' E 003°29'611.2
2017-Nov-14 20:31N 51°24' E 003°20'713.8
2017-Nov-14 20:01N 51°24' E 003°09'612.6
2017-Nov-14 19:30N 51°23' E 002°59'612.0
2017-Nov-14 19:00N 51°22' E 002°50'510.0
2017-Nov-14 18:28N 51°22' E 002°41'5 4.6
2017-Nov-14 17:21N 51°20' E 002°34'0 0.0
2017-Nov-14 16:23N 51°20' E 002°34'0 0.0
2017-Nov-14 15:57N 51°20' E 002°34'0 0.0
2017-Nov-14 15:30N 51°20' E 002°34'0 0.1
2017-Nov-14 15:00N 51°20' E 002°34'1 1.5
2017-Nov-14 14:28N 51°21' E 002°34'511.5
2017-Nov-14 14:00N 51°21' E 002°25'714.1
2017-Nov-14 13:30N 51°17' E 002°16'714.6
2017-Nov-14 13:00N 51°14' E 002°05'714.9
2017-Nov-14 12:30N 51°10' E 001°55'815.1
2017-Nov-14 12:00N 51°06' E 001°45'815.6
2017-Nov-14 11:30N 51°01' E 001°36'815.8
2017-Nov-14 11:00N 50°55' E 001°27'815.7
2017-Nov-14 10:29N 50°47' E 001°24'815.2
2017-Nov-14 09:56N 50°40' E 001°17'2014.7
2017-Nov-14 08:36N 50°28' E 000°52'214.7
2017-Nov-14 08:29N 50°28' E 000°50'814.8
2017-Nov-14 07:56N 50°25' E 000°37'1014.8
2017-Nov-14 07:15N 50°22' E 000°22'715.3
2017-Nov-14 06:45N 50°21' E 000°11'515.6
2017-Nov-14 06:28N 50°20' E 000°04'715.8
2017-Nov-14 06:00N 50°18' W 000°08'816.1
2017-Nov-14 05:30N 50°15' W 000°20'916.3
2017-Nov-14 04:57N 50°13' W 000°33'816.4
2017-Nov-14 04:28N 50°10' W 000°45'816.4
2017-Nov-14 04:00N 50°08' W 000°56'816.3
2017-Nov-14 03:31N 50°06' W 001°08'815.9
2017-Nov-14 03:00N 50°05' W 001°20'815.5
2017-Nov-14 02:30N 50°03' W 001°32'  
2017-Nov-11 17:28N 39°58' W 009°57'1912.7
2017-Nov-11 16:01N 39°40' W 009°57'1712.5
2017-Nov-11 14:39N 39°22' W 009°57'212.3
2017-Nov-11 14:27N 39°20' W 009°57'612.7
2017-Nov-11 14:00N 39°14' W 009°57'612.7
2017-Nov-11 13:30N 39°08' W 009°57'612.7
2017-Nov-11 13:00N 39°02' W 009°57'612.7
2017-Nov-11 12:30N 38°55' W 009°57'612.7
2017-Nov-11 12:00N 38°49' W 009°57'612.6
2017-Nov-11 11:30N 38°43' W 009°57'612.5
2017-Nov-11 11:00N 38°37' W 009°55'612.3
2017-Nov-11 10:30N 38°31' W 009°53'612.4
2017-Nov-11 10:00N 38°24' W 009°52'612.6
2017-Nov-11 09:30N 38°18' W 009°50'612.6
2017-Nov-11 09:00N 38°12' W 009°48'612.5
2017-Nov-11 08:30N 38°06' W 009°46'612.7
2017-Nov-11 08:00N 37°60' W 009°45'612.8
2017-Nov-11 07:30N 37°54' W 009°43'713.1
2017-Nov-11 07:00N 37°47' W 009°41'713.5
2017-Nov-11 06:30N 37°41' W 009°40'713.5
2017-Nov-11 06:00N 37°34' W 009°38'713.2
2017-Nov-11 05:30N 37°28' W 009°36'713.0
2017-Nov-11 05:00N 37°21' W 009°34'712.9
2017-Nov-11 04:30N 37°15' W 009°32'613.0
2017-Nov-11 04:00N 37°09' W 009°30'613.0
2017-Nov-11 03:30N 37°02' W 009°29'713.2
2017-Nov-11 03:00N 36°56' W 009°27'712.8
2017-Nov-11 02:29N 36°49' W 009°24'813.5
2017-Nov-11 01:55N 36°44' W 009°18'  
Track history (hours):
 
Tides and Currents Weather Stations Pressure Air Temp Water Temp Dewpoint Dewpoint Depression Visibility Wind Speed Wind Dir Waves Ship Positions

Oriental Acacia

Last reported at 2017-Nov-19 18:34 UTC. Time now 2017-Nov-24 00:23 UTC.
Position N 47°21' W 007°04'.

Length 124 m; draft 5.4 m.

Type: Ship (hazmat cat B). MMSI: 319014800.

Date/timePositionNaut miles runAvg speedWind from/ knotsBaromVisibWave heightAir tempDewpointWater temp
2017-Nov-19 18:34N 47°21' W 007°04'1514.3
2017-Nov-19 17:33N 47°33' W 006°53'114.2
2017-Nov-19 17:30N 47°34' W 006°52'714.3
2017-Nov-19 17:00N 47°40' W 006°47'813.9
2017-Nov-19 16:26N 47°47' W 006°41'613.5
2017-Nov-19 16:00N 47°52' W 006°37'913.3
2017-Nov-19 15:17N 48°01' W 006°31'413.0
2017-Nov-19 15:00N 48°04' W 006°28'813.1
2017-Nov-19 14:22N 48°11' W 006°22'513.3
2017-Nov-19 13:59N 48°15' W 006°18'913.5
2017-Nov-19 13:17N 48°24' W 006°11'1514.2
2017-Nov-19 12:15N 48°37' W 006°01'414.8
2017-Nov-19 12:01N 48°40' W 005°59'714.8
2017-Nov-19 11:31N 48°46' W 005°53'915.4
2017-Nov-19 10:57N 48°53' W 005°45'816.1
2017-Nov-19 10:29N 48°57' W 005°35'7014.5
2017-Nov-19 05:39N 49°35' W 004°04'312.7
2017-Nov-19 05:23N 49°36' W 003°60'512.7
2017-Nov-19 05:00N 49°39' W 003°53'813.0
2017-Nov-19 04:24N 49°43' W 003°43'1213.6
2017-Nov-19 03:33N 49°49' W 003°28'114.1
2017-Nov-19 03:29N 49°50' W 003°27'714.5
2017-Nov-19 03:00N 49°53' W 003°18'815.2
2017-Nov-19 02:30N 49°57' W 003°07'815.6
2017-Nov-19 02:00N 50°01' W 002°57'816.2
2017-Nov-19 01:31N 50°03' W 002°44'3315.9
2017-Nov-18 23:27N 50°11' W 001°55'614.1
2017-Nov-18 23:01N 50°13' W 001°46'713.2
2017-Nov-18 22:30N 50°15' W 001°36'612.3
2017-Nov-18 22:01N 50°16' W 001°27'2510.7
2017-Nov-18 19:39N 50°23' W 000°49'911.2
2017-Nov-18 18:49N 50°26' W 000°35'512.0
2017-Nov-18 18:22N 50°28' W 000°27'512.9
2017-Nov-18 17:59N 50°29' W 000°19'613.4
2017-Nov-18 17:30N 50°31' W 000°10'813.9
2017-Nov-18 16:58N 50°32' E 000°02'714.4
2017-Nov-18 16:30N 50°34' E 000°12'714.7
2017-Nov-18 16:01N 50°36' E 000°23'714.8
2017-Nov-18 15:31N 50°39' E 000°34'714.5
2017-Nov-18 15:01N 50°42' E 000°44'714.1
2017-Nov-18 14:30N 50°46' E 000°53'713.6
2017-Nov-18 14:00N 50°50' E 001°02'713.2
2017-Nov-18 13:30N 50°54' E 001°10'712.6
2017-Nov-18 12:59N 50°59' E 001°18'611.8
2017-Nov-18 12:30N 51°02' E 001°25'611.4
2017-Nov-18 12:00N 51°06' E 001°32'611.5
2017-Nov-18 11:30N 51°10' E 001°39'612.0
2017-Nov-18 11:00N 51°14' E 001°46'713.1
2017-Nov-18 10:30N 51°19' E 001°53'714.2
2017-Nov-18 10:01N 51°24' E 001°60'713.2
2017-Nov-18 09:30N 51°22' E 002°10'713.6
2017-Nov-18 09:01N 51°21' E 002°21'815.0
2017-Nov-18 08:30N 51°22' E 002°33'714.2
2017-Nov-18 07:58N 51°22' E 002°45'612.3
2017-Nov-18 07:30N 51°25' E 002°52'714.5
2017-Nov-18 07:00N 51°24' E 003°04'815.0
2017-Nov-18 06:30N 51°25' E 003°16'714.0
2017-Nov-18 06:00N 51°25' E 003°27'510.5
2017-Nov-18 05:30N 51°26' E 003°36'714.2
2017-Nov-18 05:01N 51°22' E 003°45'715.0
2017-Nov-18 04:31N 51°23' E 003°57'510.1
2017-Nov-18 04:01N 51°24' E 004°05'611.7
2017-Nov-18 03:31N 51°22' E 004°14'4 8.0
2017-Nov-18 02:59N 51°18' E 004°17'0 0.0
2017-Nov-18 02:29N 51°18' E 004°17'0 0.0
2017-Nov-18 01:59N 51°18' E 004°17'0 0.0
2017-Nov-18 01:14N 51°18' E 004°17'0 0.0
2017-Nov-18 00:59N 51°18' E 004°17'0 0.0
2017-Nov-18 00:29N 51°18' E 004°17'0 0.0
2017-Nov-17 23:59N 51°18' E 004°17'0 0.0
2017-Nov-17 23:29N 51°18' E 004°17'0 0.0
2017-Nov-17 22:59N 51°18' E 004°17'0 0.0
2017-Nov-17 22:29N 51°18' E 004°17'0 0.0
2017-Nov-17 21:59N 51°18' E 004°17'0 0.0
2017-Nov-17 21:26N 51°18' E 004°17'0 0.0
2017-Nov-17 20:56N 51°18' E 004°17'0 0.0
2017-Nov-17 20:29N 51°18' E 004°17'0 0.0
2017-Nov-17 19:59N 51°18' E 004°17'0 0.0
2017-Nov-17 19:26N 51°18' E 004°17'0 0.0
2017-Nov-17 18:56N 51°18' E 004°17'0 0.0
2017-Nov-17 18:29N 51°18' E 004°17'0 0.0
2017-Nov-17 17:59N 51°18' E 004°17'0 0.0
2017-Nov-17 17:26N 51°18' E 004°17'0 0.0
2017-Nov-17 16:47N 51°18' E 004°17'0 0.0
2017-Nov-17 16:20N 51°18' E 004°17'0 0.0
2017-Nov-17 15:56N 51°18' E 004°17'0 0.0
2017-Nov-17 15:17N 51°18' E 004°17'0 0.0
2017-Nov-17 14:53N 51°18' E 004°17'0 0.0
2017-Nov-17 14:29N 51°18' E 004°17'0 0.0
2017-Nov-17 13:59N 51°18' E 004°17'0 0.0
2017-Nov-17 13:26N 51°18' E 004°17'0 0.0
2017-Nov-17 12:59N 51°18' E 004°17'0 0.0
2017-Nov-17 12:29N 51°18' E 004°17'1 2.3
2017-Nov-17 12:00N 51°18' E 004°19'1 2.5
2017-Nov-17 11:30N 51°17' E 004°20'0 0.0
2017-Nov-17 11:00N 51°17' E 004°20'0 0.8
2017-Nov-17 10:30N 51°17' E 004°21'1 2.3
2017-Nov-17 09:58N 51°18' E 004°20'0 0.0
2017-Nov-17 09:28N 51°18' E 004°20'0 0.0
2017-Nov-17 08:58N 51°18' E 004°20'0 0.0
2017-Nov-17 08:28N 51°18' E 004°20'0 0.0
2017-Nov-17 07:58N 51°18' E 004°20'0 0.0
2017-Nov-17 07:28N 51°18' E 004°20'0 0.0
2017-Nov-17 06:58N 51°18' E 004°20'0 0.0
2017-Nov-17 06:28N 51°18' E 004°20'0 0.0
2017-Nov-17 05:58N 51°18' E 004°20'0 0.0
2017-Nov-17 05:25N 51°18' E 004°20'0 0.0
2017-Nov-17 04:58N 51°18' E 004°20'0 0.0
2017-Nov-17 04:22N 51°18' E 004°20'0 0.0
2017-Nov-17 03:58N 51°18' E 004°20'0 0.0
2017-Nov-17 03:28N 51°18' E 004°20'0 0.0
2017-Nov-17 02:55N 51°18' E 004°20'0 0.0
2017-Nov-17 02:28N 51°18' E 004°20'0 0.0
2017-Nov-17 01:58N 51°18' E 004°20'0 0.0
2017-Nov-17 01:28N 51°18' E 004°20'0 0.0
2017-Nov-17 00:58N 51°18' E 004°20'0 0.0
2017-Nov-17 00:28N 51°18' E 004°20'0 0.0
2017-Nov-16 23:55N 51°18' E 004°20'0 0.0
2017-Nov-16 23:28N 51°18' E 004°20'0 0.0
2017-Nov-16 22:58N 51°18' E 004°20'0 0.0
2017-Nov-16 22:28N 51°18' E 004°20'0 0.0
2017-Nov-16 21:58N 51°18' E 004°20'0 0.0
2017-Nov-16 21:28N 51°18' E 004°20'0 0.0
2017-Nov-16 20:58N 51°18' E 004°20'0 0.0
2017-Nov-16 20:28N 51°18' E 004°20'0 0.0
2017-Nov-16 19:58N 51°18' E 004°20'0 0.0
2017-Nov-16 19:28N 51°18' E 004°20'0 0.0
2017-Nov-16 18:58N 51°18' E 004°20'0 0.0
2017-Nov-16 18:22N 51°18' E 004°20'0 0.0
2017-Nov-16 17:58N 51°18' E 004°20'0 0.0
2017-Nov-16 17:28N 51°18' E 004°20'0 0.0
2017-Nov-16 16:58N 51°18' E 004°20'0 0.0
2017-Nov-16 16:28N 51°18' E 004°20'0 0.0
2017-Nov-16 15:58N 51°18' E 004°20'0 0.0
2017-Nov-16 15:25N 51°18' E 004°20'0 0.0
2017-Nov-16 14:58N 51°18' E 004°20'0 0.0
2017-Nov-16 14:28N 51°18' E 004°20'0 0.0
2017-Nov-16 13:58N 51°18' E 004°20'0 0.0
2017-Nov-16 13:28N 51°18' E 004°20'0 0.0
2017-Nov-16 12:55N 51°18' E 004°20'0 0.0
2017-Nov-16 12:28N 51°18' E 004°20'0 0.0
2017-Nov-16 11:58N 51°18' E 004°20'0 0.0
2017-Nov-16 11:28N 51°18' E 004°20'0 0.0
2017-Nov-16 10:55N 51°18' E 004°20'0 0.0
2017-Nov-16 10:25N 51°18' E 004°20'0 0.0
2017-Nov-16 09:58N 51°18' E 004°20'0 0.0
2017-Nov-16 09:28N 51°18' E 004°20'0 0.0
2017-Nov-16 08:55N 51°18' E 004°20'0 0.0
2017-Nov-16 08:28N 51°18' E 004°20'0 0.0
2017-Nov-16 07:58N 51°18' E 004°20'0 0.0
2017-Nov-16 07:28N 51°18' E 004°20'0 0.0
2017-Nov-16 06:58N 51°18' E 004°20'0 0.0
2017-Nov-16 06:28N 51°18' E 004°20'0 0.0
2017-Nov-16 05:58N 51°18' E 004°20'0 0.0
2017-Nov-16 05:28N 51°18' E 004°20'0 0.0
2017-Nov-16 04:58N 51°18' E 004°20'0 0.0
2017-Nov-16 04:28N 51°18' E 004°20'0 0.1
2017-Nov-16 03:55N 51°18' E 004°20'0 0.1
2017-Nov-16 03:28N 51°18' E 004°20'0 0.1
2017-Nov-16 02:58N 51°18' E 004°20'0 0.0
2017-Nov-16 02:28N 51°18' E 004°20'0 0.0
2017-Nov-16 01:58N 51°18' E 004°20'0 0.0
2017-Nov-16 01:17N 51°18' E 004°20'0 0.0
2017-Nov-16 00:55N 51°18' E 004°20'0 0.0
2017-Nov-16 00:25N 51°18' E 004°20'0 0.0
2017-Nov-15 23:52N 51°18' E 004°20'0 0.0
2017-Nov-15 23:28N 51°18' E 004°20'0 0.0
2017-Nov-15 22:58N 51°18' E 004°20'0 0.0
2017-Nov-15 22:28N 51°18' E 004°20'0 0.0
2017-Nov-15 21:55N 51°18' E 004°20'0 0.0
2017-Nov-15 21:28N 51°18' E 004°20'0 0.0
2017-Nov-15 20:52N 51°18' E 004°20'0 0.0
2017-Nov-15 20:25N 51°18' E 004°20'0 0.0
2017-Nov-15 19:58N 51°18' E 004°20'0 0.0
2017-Nov-15 19:28N 51°18' E 004°20'0 0.0
2017-Nov-15 18:58N 51°18' E 004°20'0 0.0
2017-Nov-15 18:28N 51°18' E 004°20'0 0.0
2017-Nov-15 17:58N 51°18' E 004°20'0 0.0
2017-Nov-15 17:28N 51°18' E 004°20'0 0.0
2017-Nov-15 16:55N 51°18' E 004°20'0 0.0
2017-Nov-15 16:28N 51°18' E 004°20'0 0.0
2017-Nov-15 15:43N 51°18' E 004°20'0 0.0
2017-Nov-15 15:25N 51°18' E 004°20'0 0.0
2017-Nov-15 14:55N 51°18' E 004°20'0 0.0
2017-Nov-15 14:22N 51°18' E 004°20'0 0.0
2017-Nov-15 13:58N 51°18' E 004°20'0 0.0
2017-Nov-15 13:19N 51°18' E 004°20'0 0.0
2017-Nov-15 12:52N 51°18' E 004°20'0 0.0
2017-Nov-15 12:28N 51°18' E 004°20'0 0.0
2017-Nov-15 11:58N 51°18' E 004°20'0 0.0
2017-Nov-15 11:25N 51°18' E 004°20'0 0.0
2017-Nov-15 10:58N 51°18' E 004°20'0 0.0
2017-Nov-15 10:25N 51°18' E 004°20'0 0.0
2017-Nov-15 09:49N 51°18' E 004°20'0 0.0
2017-Nov-15 09:25N 51°18' E 004°20'0 0.0
2017-Nov-15 08:52N 51°18' E 004°20'0 0.0
2017-Nov-15 08:25N 51°18' E 004°20'0 0.0
2017-Nov-15 07:55N 51°18' E 004°20'0 0.0
2017-Nov-15 07:19N 51°18' E 004°20'0 0.0
2017-Nov-15 06:55N 51°18' E 004°20'0 0.0
2017-Nov-15 06:28N 51°18' E 004°20'0 0.0
2017-Nov-15 05:52N 51°18' E 004°20'0 0.0
2017-Nov-15 05:25N 51°18' E 004°20'0 0.0
2017-Nov-15 04:55N 51°18' E 004°20'0 0.0
2017-Nov-15 04:19N 51°18' E 004°20'0 0.0
2017-Nov-15 03:55N 51°18' E 004°20'0 0.0
2017-Nov-15 03:22N 51°18' E 004°20'0 0.1
2017-Nov-15 02:59N 51°18' E 004°20'2 3.7
2017-Nov-15 02:31N 51°19' E 004°19'2 3.3
2017-Nov-15 02:01N 51°21' E 004°17'0 0.0
2017-Nov-15 01:28N 51°21' E 004°17'0 0.0
2017-Nov-15 00:58N 51°21' E 004°17'0 0.0
2017-Nov-15 00:30N 51°21' E 004°17'2 3.9
2017-Nov-15 00:00N 51°21' E 004°14'4 7.7
2017-Nov-14 23:30N 51°22' E 004°08'510.8
2017-Nov-14 23:00N 51°26' E 004°01'612.2
2017-Nov-14 22:30N 51°22' E 003°54'612.8
2017-Nov-14 22:00N 51°22' E 003°44'510.9
2017-Nov-14 21:30N 51°26' E 003°37'5 9.9
2017-Nov-14 21:00N 51°25' E 003°29'611.2
2017-Nov-14 20:31N 51°24' E 003°20'713.8
2017-Nov-14 20:01N 51°24' E 003°09'612.6
2017-Nov-14 19:30N 51°23' E 002°59'612.0
2017-Nov-14 19:00N 51°22' E 002°50'510.0
2017-Nov-14 18:28N 51°22' E 002°41'5 4.6
2017-Nov-14 17:21N 51°20' E 002°34'0 0.0
2017-Nov-14 16:23N 51°20' E 002°34'0 0.0
2017-Nov-14 15:57N 51°20' E 002°34'0 0.0
2017-Nov-14 15:30N 51°20' E 002°34'0 0.1
2017-Nov-14 15:00N 51°20' E 002°34'1 1.5
2017-Nov-14 14:28N 51°21' E 002°34'511.5
2017-Nov-14 14:00N 51°21' E 002°25'714.1
2017-Nov-14 13:30N 51°17' E 002°16'714.6
2017-Nov-14 13:00N 51°14' E 002°05'714.9
2017-Nov-14 12:30N 51°10' E 001°55'815.1
2017-Nov-14 12:00N 51°06' E 001°45'815.6
2017-Nov-14 11:30N 51°01' E 001°36'815.8
2017-Nov-14 11:00N 50°55' E 001°27'815.7
2017-Nov-14 10:29N 50°47' E 001°24'815.2
2017-Nov-14 09:56N 50°40' E 001°17'2014.7
2017-Nov-14 08:36N 50°28' E 000°52'214.7
2017-Nov-14 08:29N 50°28' E 000°50'814.8
2017-Nov-14 07:56N 50°25' E 000°37'1014.8
2017-Nov-14 07:15N 50°22' E 000°22'715.3
2017-Nov-14 06:45N 50°21' E 000°11'515.6
2017-Nov-14 06:28N 50°20' E 000°04'715.8
2017-Nov-14 06:00N 50°18' W 000°08'816.1
2017-Nov-14 05:30N 50°15' W 000°20'916.3
2017-Nov-14 04:57N 50°13' W 000°33'816.4
2017-Nov-14 04:28N 50°10' W 000°45'816.4
2017-Nov-14 04:00N 50°08' W 000°56'816.3
2017-Nov-14 03:31N 50°06' W 001°08'815.9
2017-Nov-14 03:00N 50°05' W 001°20'815.5
2017-Nov-14 02:30N 50°03' W 001°32'  
2017-Nov-11 17:28N 39°58' W 009°57'1912.7
2017-Nov-11 16:01N 39°40' W 009°57'1712.5
2017-Nov-11 14:39N 39°22' W 009°57'212.3
2017-Nov-11 14:27N 39°20' W 009°57'612.7
2017-Nov-11 14:00N 39°14' W 009°57'612.7
2017-Nov-11 13:30N 39°08' W 009°57'612.7
2017-Nov-11 13:00N 39°02' W 009°57'612.7
2017-Nov-11 12:30N 38°55' W 009°57'612.7
2017-Nov-11 12:00N 38°49' W 009°57'612.6
2017-Nov-11 11:30N 38°43' W 009°57'612.5
2017-Nov-11 11:00N 38°37' W 009°55'612.3
2017-Nov-11 10:30N 38°31' W 009°53'612.4
2017-Nov-11 10:00N 38°24' W 009°52'612.6
2017-Nov-11 09:30N 38°18' W 009°50'612.6
2017-Nov-11 09:00N 38°12' W 009°48'612.5
2017-Nov-11 08:30N 38°06' W 009°46'612.7
2017-Nov-11 08:00N 37°60' W 009°45'612.8
2017-Nov-11 07:30N 37°54' W 009°43'713.1
2017-Nov-11 07:00N 37°47' W 009°41'713.5
2017-Nov-11 06:30N 37°41' W 009°40'713.5
2017-Nov-11 06:00N 37°34' W 009°38'713.2
2017-Nov-11 05:30N 37°28' W 009°36'713.0
2017-Nov-11 05:00N 37°21' W 009°34'712.9
2017-Nov-11 04:30N 37°15' W 009°32'613.0
2017-Nov-11 04:00N 37°09' W 009°30'613.0
2017-Nov-11 03:30N 37°02' W 009°29'713.2
2017-Nov-11 03:00N 36°56' W 009°27'712.8
2017-Nov-11 02:29N 36°49' W 009°24'813.5
2017-Nov-11 01:55N 36°44' W 009°18'  

Dump ship's entire track history